createdAt,value
2019-05-15T00:01:05.546Z,6.60
2019-05-15T00:03:34.021Z,6.70
2019-05-15T00:06:02.518Z,6.60
2019-05-15T00:08:30.917Z,6.70
2019-05-15T00:10:59.339Z,6.50
2019-05-15T00:13:28.287Z,6.60
2019-05-15T00:15:58.849Z,6.70
2019-05-15T00:18:28.191Z,6.70
2019-05-15T00:20:59.311Z,6.70
2019-05-15T00:23:29.204Z,6.50
2019-05-15T00:25:58.506Z,6.60
2019-05-15T00:28:27.964Z,6.60
2019-05-15T00:30:58.262Z,6.50
2019-05-15T00:33:28.649Z,6.60
2019-05-15T00:35:58.980Z,6.50
2019-05-15T00:38:27.997Z,6.60
2019-05-15T00:40:58.484Z,6.50
2019-05-15T00:43:28.954Z,6.60
2019-05-15T00:45:58.588Z,6.80
2019-05-15T00:48:29.198Z,6.90
2019-05-15T00:50:59.035Z,6.90
2019-05-15T00:53:28.340Z,6.80
2019-05-15T00:55:58.100Z,6.70
2019-05-15T00:58:28.301Z,6.70
2019-05-15T01:00:59.027Z,6.80
2019-05-15T01:03:27.850Z,6.70
2019-05-15T01:05:58.488Z,6.70
2019-05-15T01:08:28.442Z,6.80
2019-05-15T01:10:58.236Z,6.90
2019-05-15T01:13:28.148Z,6.90
2019-05-15T01:15:58.205Z,6.90
2019-05-15T01:18:29.067Z,7.00
2019-05-15T01:20:58.686Z,6.90
2019-05-15T01:23:28.215Z,7.00
2019-05-15T01:25:58.747Z,7.00
2019-05-15T01:28:28.879Z,6.90
2019-05-15T01:30:59.210Z,6.90
2019-05-15T01:33:28.314Z,6.90
2019-05-15T01:35:58.918Z,6.90
2019-05-15T01:38:28.073Z,6.90
2019-05-15T01:40:58.958Z,6.90
2019-05-15T01:43:28.960Z,6.90
2019-05-15T01:45:58.898Z,6.90
2019-05-15T01:48:28.313Z,6.90
2019-05-15T01:50:58.573Z,6.90
2019-05-15T01:53:28.969Z,6.80
2019-05-15T01:55:58.914Z,6.80
2019-05-15T01:58:28.748Z,6.70
2019-05-15T02:00:58.985Z,6.60
2019-05-15T02:03:28.945Z,6.60
2019-05-15T02:05:58.636Z,6.60
2019-05-15T02:08:28.476Z,6.60
2019-05-15T02:10:58.822Z,6.60
2019-05-15T02:13:28.285Z,6.50
2019-05-15T02:15:58.759Z,6.50
2019-05-15T02:18:28.598Z,6.50
2019-05-15T02:20:58.696Z,6.40
2019-05-15T02:23:28.093Z,6.40
2019-05-15T02:25:58.712Z,6.40
2019-05-15T02:28:28.750Z,6.40
2019-05-15T02:30:58.733Z,6.50
2019-05-15T02:33:29.779Z,6.50
2019-05-15T02:35:59.414Z,6.50
2019-05-15T02:38:29.599Z,6.30
2019-05-15T02:40:59.227Z,6.30
2019-05-15T02:43:29.789Z,6.30
2019-05-15T02:46:00.396Z,6.20
2019-05-15T02:48:28.969Z,6.30
2019-05-15T02:50:58.832Z,6.30
2019-05-15T02:53:30.079Z,6.20
2019-05-15T02:56:00.134Z,6.30
2019-05-15T02:58:29.230Z,6.30
2019-05-15T03:00:59.228Z,6.30
2019-05-15T03:03:29.459Z,6.30
2019-05-15T03:06:00.084Z,6.30
2019-05-15T03:08:29.760Z,6.30
2019-05-15T03:10:59.390Z,6.20
2019-05-15T03:13:29.836Z,6.20
2019-05-15T03:15:59.903Z,6.30
2019-05-15T03:18:29.204Z,6.30
2019-05-15T03:21:00.434Z,6.30
2019-05-15T03:23:29.511Z,6.20
2019-05-15T03:26:02.982Z,6.20
2019-05-15T03:28:29.484Z,6.20
2019-05-15T03:31:31.096Z,6.10
2019-05-15T03:33:35.926Z,6.10
2019-05-15T03:36:02.512Z,6.10
2019-05-15T03:38:29.717Z,6.10
2019-05-15T03:40:59.762Z,6.10
2019-05-15T03:43:29.259Z,6.10
2019-05-15T03:46:01.193Z,6.10
2019-05-15T03:48:28.818Z,6.10
2019-05-15T03:50:59.763Z,6.10
2019-05-15T03:53:29.841Z,6.10
2019-05-15T03:55:59.167Z,6.00
2019-05-15T03:58:28.857Z,6.00
2019-05-15T04:01:00.149Z,6.00
2019-05-15T04:03:29.962Z,6.00
2019-05-15T04:06:00.426Z,6.00
2019-05-15T04:08:29.929Z,6.00
2019-05-15T04:10:59.641Z,6.10
2019-05-15T04:13:29.971Z,6.10
2019-05-15T04:15:59.510Z,6.20
2019-05-15T04:18:29.104Z,6.20
2019-05-15T04:21:00.206Z,6.10
2019-05-15T04:23:30.126Z,6.10
2019-05-15T04:25:59.327Z,6.20
2019-05-15T04:28:29.666Z,6.10
2019-05-15T04:30:59.690Z,6.20
2019-05-15T04:33:29.389Z,6.30
2019-05-15T04:35:58.907Z,6.20
2019-05-15T04:38:29.221Z,6.30
2019-05-15T04:40:59.053Z,6.30
2019-05-15T04:43:29.425Z,6.40
2019-05-15T04:45:59.117Z,6.30
2019-05-15T04:48:29.098Z,6.30
2019-05-15T04:50:58.908Z,6.30
2019-05-15T04:53:29.527Z,6.30
2019-05-15T04:55:59.821Z,6.10
2019-05-15T04:58:29.644Z,6.30
2019-05-15T05:01:00.014Z,6.50
2019-05-15T05:03:29.424Z,6.60
2019-05-15T05:05:59.231Z,6.50
2019-05-15T05:08:29.170Z,6.70
2019-05-15T05:10:59.148Z,6.80
2019-05-15T05:13:28.644Z,6.70
2019-05-15T05:15:58.691Z,6.80
2019-05-15T05:18:29.718Z,6.80
2019-05-15T05:20:57.814Z,6.70
2019-05-15T05:23:28.400Z,6.70
2019-05-15T05:25:58.195Z,6.70
2019-05-15T05:28:28.769Z,6.70
2019-05-15T05:30:58.818Z,6.60
2019-05-15T05:33:28.666Z,6.70
2019-05-15T05:35:58.331Z,6.70
2019-05-15T05:38:28.206Z,6.70
2019-05-15T05:40:58.637Z,6.40
2019-05-15T05:43:29.804Z,6.30
2019-05-15T05:45:58.740Z,6.30
2019-05-15T05:48:29.277Z,6.20
2019-05-15T05:50:58.427Z,6.20
2019-05-15T05:53:28.661Z,6.30
2019-05-15T05:55:58.070Z,6.30
2019-05-15T05:58:29.464Z,6.20
2019-05-15T06:00:58.596Z,6.20
2019-05-15T06:03:28.125Z,6.10
2019-05-15T06:05:59.117Z,6.40
2019-05-15T06:08:28.307Z,6.40
2019-05-15T06:10:58.483Z,6.50
2019-05-15T06:13:29.113Z,6.70
2019-05-15T06:15:59.118Z,7.00
2019-05-15T06:18:28.207Z,6.80
2019-05-15T06:20:58.625Z,6.80
2019-05-15T06:23:33.629Z,6.70
2019-05-15T06:25:59.206Z,6.60
2019-05-15T06:28:28.952Z,6.80
2019-05-15T06:31:00.778Z,6.70
2019-05-15T06:33:27.890Z,6.90
2019-05-15T06:35:56.355Z,7.00
2019-05-15T06:38:25.709Z,7.10
2019-05-15T06:40:54.614Z,6.90
2019-05-15T06:43:23.037Z,6.90
2019-05-15T06:45:51.507Z,7.10
2019-05-15T06:48:20.017Z,7.40
2019-05-15T06:50:49.353Z,7.60
2019-05-15T06:53:19.254Z,8.00
2019-05-15T06:55:48.840Z,8.50
2019-05-15T06:58:19.015Z,8.50
2019-05-15T07:00:48.751Z,8.80
2019-05-15T07:03:24.865Z,9.10
2019-05-15T07:05:50.780Z,9.20
2019-05-15T07:08:18.773Z,8.90
2019-05-15T07:10:48.645Z,9.10
2019-05-15T07:13:18.362Z,9.20
2019-05-15T07:15:49.567Z,9.30
2019-05-15T07:18:19.875Z,9.40
2019-05-15T07:20:49.287Z,9.70
2019-05-15T07:23:18.852Z,9.70
2019-05-15T07:25:49.800Z,10.00
2019-05-15T07:28:18.170Z,10.30
2019-05-15T07:30:49.400Z,10.70
2019-05-15T07:33:28.011Z,10.90
2019-05-15T07:35:49.256Z,11.10
2019-05-15T07:38:18.425Z,10.80
2019-05-15T07:40:54.266Z,10.30
2019-05-15T07:43:18.155Z,10.70
2019-05-15T07:45:53.197Z,10.80
2019-05-15T07:48:18.910Z,10.00
2019-05-15T07:50:49.775Z,10.10
2019-05-15T07:53:19.873Z,10.00
2019-05-15T07:55:49.928Z,9.90
2019-05-15T07:58:21.385Z,10.10
2019-05-15T08:00:49.466Z,10.50
2019-05-15T08:03:18.560Z,10.90
2019-05-15T08:05:58.038Z,11.10
2019-05-15T08:08:18.486Z,10.80
2019-05-15T08:10:48.895Z,10.50
2019-05-15T08:13:18.430Z,10.50
2019-05-15T08:15:48.618Z,10.60
2019-05-15T08:18:18.397Z,10.70
2019-05-15T08:20:48.958Z,10.20
2019-05-15T08:23:19.140Z,10.30
2019-05-15T08:25:48.593Z,10.40
2019-05-15T08:28:19.160Z,10.50
2019-05-15T08:30:49.462Z,10.30
2019-05-15T08:33:17.964Z,10.40
2019-05-15T08:35:51.089Z,10.40
2019-05-15T08:38:18.190Z,10.70
2019-05-15T08:40:48.896Z,11.10
2019-05-15T08:43:18.315Z,11.10
2019-05-15T08:45:49.552Z,11.20
2019-05-15T08:48:18.460Z,11.00
2019-05-15T08:50:48.717Z,11.30
2019-05-15T08:53:19.450Z,11.30
2019-05-15T08:55:48.843Z,11.30
2019-05-15T08:58:20.067Z,11.70
2019-05-15T09:00:52.464Z,12.20
2019-05-15T09:03:18.457Z,12.00
2019-05-15T09:05:48.508Z,12.20
2019-05-15T09:08:19.370Z,12.10
2019-05-15T09:10:49.905Z,11.70
2019-05-15T09:13:18.899Z,11.00
2019-05-15T09:15:48.647Z,11.10
2019-05-15T09:18:19.938Z,11.20
2019-05-15T09:20:49.225Z,11.30
2019-05-15T09:23:19.279Z,11.40
2019-05-15T09:25:49.296Z,11.20
2019-05-15T09:28:19.002Z,10.90
2019-05-15T09:30:48.464Z,10.80
2019-05-15T09:33:19.564Z,10.70
2019-05-15T09:35:49.064Z,10.70
2019-05-15T09:38:18.465Z,10.60
2019-05-15T09:40:50.314Z,10.30
2019-05-15T09:43:18.130Z,10.30
2019-05-15T09:45:49.248Z,10.20
2019-05-15T09:48:19.851Z,10.20
2019-05-15T09:50:49.306Z,10.80
2019-05-15T09:53:19.133Z,11.20
2019-05-15T09:55:49.518Z,11.10
2019-05-15T09:58:20.551Z,11.20
2019-05-15T10:00:51.933Z,11.40
2019-05-15T10:03:19.811Z,11.70
2019-05-15T10:05:48.531Z,11.60
2019-05-15T10:08:17.068Z,11.50
2019-05-15T10:10:45.757Z,11.60
2019-05-15T10:13:14.260Z,11.20
2019-05-15T10:15:42.708Z,11.20
2019-05-15T10:18:11.287Z,11.00
2019-05-15T10:20:39.756Z,11.20
2019-05-15T10:23:08.898Z,11.10
2019-05-15T10:25:38.900Z,11.30
2019-05-15T10:28:09.734Z,11.50
2019-05-15T10:30:42.737Z,11.40
2019-05-15T10:33:11.305Z,12.00
2019-05-15T10:35:39.716Z,12.00
2019-05-15T10:38:08.964Z,11.80
2019-05-15T10:40:39.504Z,11.70
2019-05-15T10:43:09.060Z,11.90
2019-05-15T10:45:42.591Z,12.10
2019-05-15T10:48:11.320Z,12.00
2019-05-15T10:50:40.087Z,12.10
2019-05-15T10:53:11.210Z,12.30
2019-05-15T10:55:39.631Z,12.70
2019-05-15T10:58:16.655Z,12.50
2019-05-15T11:00:38.458Z,12.80
2019-05-15T11:03:08.904Z,12.70
2019-05-15T11:05:45.162Z,12.60
2019-05-15T11:08:08.418Z,12.30
2019-05-15T11:10:38.573Z,12.00
2019-05-15T11:13:08.969Z,11.70
2019-05-15T11:15:39.479Z,11.70
2019-05-15T11:18:09.290Z,12.10
2019-05-15T11:20:40.932Z,11.90
2019-05-15T11:23:09.749Z,12.20
2019-05-15T11:25:38.510Z,12.60
2019-05-15T11:28:08.230Z,12.70
2019-05-15T11:30:39.282Z,12.70
2019-05-15T11:33:09.560Z,12.60
2019-05-15T11:35:40.665Z,12.50
2019-05-15T11:38:09.978Z,12.90
2019-05-15T11:40:38.939Z,12.90
2019-05-15T11:43:08.567Z,12.40
2019-05-15T11:45:38.977Z,12.20
2019-05-15T11:48:09.098Z,12.30
2019-05-15T11:50:39.958Z,12.30
2019-05-15T11:53:08.736Z,11.90
2019-05-15T11:55:38.709Z,11.50
2019-05-15T11:58:09.427Z,11.40
2019-05-15T12:00:38.468Z,11.80
2019-05-15T12:03:08.933Z,11.90
2019-05-15T12:05:38.595Z,12.10
2019-05-15T12:08:09.035Z,12.30
2019-05-15T12:10:38.996Z,12.20
2019-05-15T12:13:09.820Z,11.80
2019-05-15T12:15:38.775Z,11.90
2019-05-15T12:18:08.807Z,12.10
2019-05-15T12:20:38.962Z,12.30
2019-05-15T12:23:09.013Z,12.40
2019-05-15T12:25:39.325Z,12.50
2019-05-15T12:28:09.669Z,12.00
2019-05-15T12:30:40.249Z,12.20
2019-05-15T12:33:09.263Z,12.50
2019-05-15T12:35:39.632Z,12.50
2019-05-15T12:38:09.970Z,12.70
2019-05-15T13:00:40.753Z,12.60
2019-05-15T13:03:09.323Z,12.70
2019-05-15T13:05:39.216Z,12.80
2019-05-15T13:08:08.497Z,12.80
2019-05-15T13:10:38.440Z,12.70
2019-05-15T13:13:09.399Z,12.70
2019-05-15T13:15:41.040Z,12.60
2019-05-15T13:18:13.911Z,12.60
2019-05-15T13:20:38.342Z,12.60
2019-05-15T13:23:08.583Z,12.70
2019-05-15T13:25:39.594Z,12.70
2019-05-15T13:28:09.012Z,12.70
2019-05-15T13:30:41.385Z,12.70
2019-05-15T13:33:09.763Z,12.50
2019-05-15T13:35:38.855Z,12.70
2019-05-15T13:38:28.592Z,12.70
2019-05-15T13:40:58.966Z,12.50
2019-05-15T13:43:29.025Z,12.20
2019-05-15T13:45:58.176Z,12.10
2019-05-15T13:48:28.999Z,12.20
2019-05-15T13:50:59.055Z,12.10
2019-05-15T13:53:27.929Z,12.10
2019-05-15T13:55:56.555Z,12.00
2019-05-15T13:58:24.981Z,11.90
2019-05-15T14:00:53.583Z,11.90
2019-05-15T14:03:22.833Z,11.90
2019-05-15T14:05:51.279Z,11.80
2019-05-15T14:08:19.705Z,11.80
2019-05-15T14:10:48.862Z,11.90
2019-05-15T14:13:18.894Z,12.00
2019-05-15T14:15:48.793Z,12.00
2019-05-15T14:18:19.728Z,11.90
2019-05-15T14:20:49.048Z,12.10
2019-05-15T14:23:18.606Z,12.10
2019-05-15T14:25:48.275Z,11.90
2019-05-15T14:28:18.853Z,12.00
2019-05-15T14:30:46.993Z,12.10
2019-05-15T14:33:15.415Z,12.30
2019-05-15T14:35:44.140Z,12.20
2019-05-15T14:38:12.976Z,12.20
2019-05-15T14:40:41.435Z,12.20
2019-05-15T14:43:09.889Z,12.30
2019-05-15T14:45:39.009Z,12.50
2019-05-15T14:48:08.852Z,12.50
2019-05-15T14:50:38.479Z,12.30
2019-05-15T14:53:09.494Z,12.10
2019-05-15T14:55:43.213Z,12.10
2019-05-15T14:58:08.289Z,12.10
2019-05-15T15:00:40.776Z,12.00
2019-05-15T15:03:09.731Z,12.20
2019-05-15T15:05:38.889Z,12.30
2019-05-15T15:08:20.336Z,12.40
2019-05-15T15:10:38.408Z,12.20
2019-05-15T15:13:09.261Z,12.10
2019-05-15T15:15:37.932Z,12.00
2019-05-15T15:18:08.244Z,12.00
2019-05-15T15:20:38.069Z,12.20
2019-05-15T15:23:08.515Z,12.30
2019-05-15T15:25:39.540Z,12.30
2019-05-15T15:28:08.379Z,12.30
2019-05-15T15:30:38.536Z,12.30
2019-05-15T15:33:08.555Z,12.20
2019-05-15T15:35:38.329Z,12.40
2019-05-15T15:40:55.541Z,12.10
2019-05-15T15:43:24.227Z,11.90
2019-05-15T15:46:02.227Z,12.00
2019-05-15T15:48:30.639Z,12.10
2019-05-15T15:50:59.080Z,12.00
2019-05-15T15:53:28.604Z,11.90
2019-05-15T15:55:57.303Z,12.00
2019-05-15T15:58:28.670Z,11.90
2019-05-15T16:00:56.314Z,11.80
2019-05-15T16:03:24.780Z,11.80
2019-05-15T16:05:53.349Z,11.80
2019-05-15T16:08:21.786Z,12.00
2019-05-15T16:10:50.216Z,12.00
2019-05-15T16:13:18.922Z,11.90
2019-05-15T16:15:48.773Z,12.00
2019-05-15T16:18:18.333Z,11.80
2019-05-15T16:20:48.565Z,11.80
2019-05-15T16:23:18.835Z,11.90
2019-05-15T16:25:48.951Z,11.90
2019-05-15T16:28:18.512Z,11.70
2019-05-15T16:30:51.391Z,11.70
2019-05-15T16:33:18.430Z,11.80
2019-05-15T16:35:48.795Z,11.70
2019-05-15T16:38:19.277Z,11.70
2019-05-15T16:40:48.949Z,11.80
2019-05-15T16:43:17.887Z,11.90
2019-05-15T16:45:49.628Z,11.80
2019-05-15T16:48:18.731Z,11.90
2019-05-15T16:50:48.731Z,11.90
2019-05-15T16:53:18.217Z,11.90
2019-05-15T16:55:48.060Z,11.90
2019-05-15T16:58:19.187Z,12.00
2019-05-15T17:00:49.700Z,12.10
2019-05-15T17:03:18.462Z,12.00
2019-05-15T17:05:48.026Z,11.90
2019-05-15T17:08:17.978Z,11.60
2019-05-15T17:10:48.335Z,11.40
2019-05-15T17:13:17.260Z,11.30
2019-05-15T17:15:47.688Z,11.20
2019-05-15T17:18:17.707Z,11.20
2019-05-15T17:20:48.276Z,11.10
2019-05-15T17:23:18.710Z,11.20
2019-05-15T17:25:48.862Z,11.20
2019-05-15T17:28:18.604Z,11.10
2019-05-15T17:30:48.789Z,11.00
2019-05-15T17:33:18.428Z,10.70
2019-05-15T17:35:48.727Z,10.70
2019-05-15T17:38:18.238Z,10.60
2019-05-15T17:40:48.451Z,10.40
2019-05-15T17:43:18.205Z,10.40
2019-05-15T17:45:48.326Z,10.30
2019-05-15T17:48:19.362Z,10.30
2019-05-15T17:50:52.191Z,10.20
2019-05-15T17:53:18.157Z,10.10
2019-05-15T17:55:47.898Z,10.10
2019-05-15T17:58:16.790Z,10.20
2019-05-15T18:00:45.209Z,10.20
2019-05-15T18:03:13.655Z,10.20
2019-05-15T18:05:42.061Z,10.20
2019-05-15T18:08:10.508Z,10.10
2019-05-15T18:10:38.931Z,10.00
2019-05-15T18:13:08.966Z,9.90
2019-05-15T18:15:38.675Z,9.80
2019-05-15T18:18:09.608Z,9.70
2019-05-15T18:20:38.346Z,9.80
2019-05-15T18:23:08.421Z,9.80
2019-05-15T18:25:38.374Z,9.80
2019-05-15T18:28:08.485Z,9.80
2019-05-15T18:30:38.970Z,9.70
2019-05-15T18:33:08.677Z,9.70
2019-05-15T18:35:38.525Z,9.80
2019-05-15T18:38:08.541Z,9.60
2019-05-15T18:40:38.389Z,9.60
2019-05-15T18:43:09.766Z,9.60
2019-05-15T18:45:38.280Z,9.40
2019-05-15T18:48:07.028Z,9.30
2019-05-15T18:50:37.673Z,9.30
2019-05-15T18:53:08.731Z,9.30
2019-05-15T18:55:38.580Z,9.40
2019-05-15T18:58:08.614Z,9.30
2019-05-15T19:00:36.570Z,9.30
2019-05-15T19:03:16.707Z,9.30
2019-05-15T19:05:35.144Z,9.40
2019-05-15T19:08:03.546Z,9.40
2019-05-15T19:10:31.971Z,9.30
2019-05-15T19:13:00.374Z,9.40
2019-05-15T19:15:30.298Z,9.50
2019-05-15T19:17:59.081Z,9.50
2019-05-15T19:20:28.111Z,9.30
2019-05-15T19:22:58.724Z,9.20
2019-05-15T19:25:28.532Z,9.20
2019-05-15T19:27:57.225Z,9.10
2019-05-15T19:30:28.455Z,9.00
2019-05-15T19:32:58.271Z,9.00
2019-05-15T19:35:28.022Z,9.00
2019-05-15T19:37:58.533Z,9.00
2019-05-15T19:40:28.296Z,8.90
2019-05-15T19:42:59.125Z,9.00
2019-05-15T19:45:28.215Z,9.00
2019-05-15T19:47:58.721Z,9.10
2019-05-15T19:50:28.773Z,9.10
2019-05-15T19:52:59.052Z,9.00
2019-05-15T19:55:27.515Z,9.00
2019-05-15T19:57:58.533Z,9.10
2019-05-15T20:00:28.262Z,9.10
2019-05-15T20:02:58.080Z,9.00
2019-05-15T20:05:28.699Z,9.00
2019-05-15T20:07:58.827Z,8.90
2019-05-15T20:10:29.313Z,8.90
2019-05-15T20:13:18.351Z,8.80
2019-05-15T20:15:48.536Z,8.80
2019-05-15T20:18:18.518Z,8.70
2019-05-15T20:20:47.785Z,8.70
2019-05-15T20:23:18.271Z,8.70
2019-05-15T20:25:46.624Z,8.60
2019-05-15T20:28:15.013Z,8.60
2019-05-15T20:30:43.442Z,8.60
2019-05-15T20:33:12.128Z,8.60
2019-05-15T20:35:40.624Z,8.70
2019-05-15T20:38:09.100Z,8.60
2019-05-15T20:40:37.569Z,8.70
2019-05-15T20:43:08.030Z,8.60
2019-05-15T20:45:36.238Z,8.70
2019-05-15T20:48:08.848Z,8.60
2019-05-15T20:50:38.692Z,8.60
2019-05-15T20:53:07.197Z,8.50
2019-05-15T20:55:37.934Z,8.50
2019-05-15T20:58:07.906Z,8.50
2019-05-15T21:00:40.752Z,8.60
2019-05-15T21:03:08.329Z,8.70
2019-05-15T21:05:38.152Z,8.60
2019-05-15T21:08:06.871Z,8.70
2019-05-15T21:10:35.475Z,8.60
2019-05-15T21:13:04.258Z,8.50
2019-05-15T21:15:32.763Z,8.50
2019-05-15T21:18:13.573Z,8.40
2019-05-15T21:20:31.387Z,8.40
2019-05-15T21:23:01.388Z,8.40
2019-05-15T21:25:30.073Z,8.40
2019-05-15T21:27:59.001Z,8.30
2019-05-15T21:30:29.526Z,8.20
2019-05-15T21:32:58.965Z,8.10
2019-05-15T21:35:27.709Z,8.10
2019-05-15T21:37:57.820Z,8.20
2019-05-15T21:40:27.932Z,8.20
2019-05-15T21:42:58.149Z,8.20
2019-05-15T21:45:28.849Z,8.20
2019-05-15T21:47:58.721Z,8.20
2019-05-15T21:50:28.349Z,8.20
2019-05-15T21:52:58.255Z,8.40
2019-05-15T21:55:29.688Z,8.30
2019-05-15T21:58:00.011Z,8.10
2019-05-15T22:00:33.851Z,8.10
2019-05-15T22:03:02.603Z,8.10
2019-05-15T22:05:31.443Z,8.00
2019-05-15T22:07:59.998Z,8.00
2019-05-15T22:10:29.402Z,8.10
2019-05-15T22:12:58.956Z,8.10
2019-05-15T22:15:28.960Z,8.10
2019-05-15T22:17:57.774Z,8.20
2019-05-15T22:20:30.182Z,8.20
2019-05-15T22:22:59.259Z,8.20
2019-05-15T22:25:28.088Z,8.20
2019-05-15T22:27:57.814Z,8.20
2019-05-15T22:30:30.029Z,8.20
2019-05-15T22:32:58.721Z,8.30
2019-05-15T22:35:29.452Z,8.20
2019-05-15T22:37:58.435Z,8.10
2019-05-15T22:40:29.043Z,8.30
2019-05-15T22:42:59.081Z,8.30
2019-05-15T22:45:28.525Z,8.30
2019-05-15T22:47:58.593Z,8.20
2019-05-15T22:50:28.077Z,8.30
2019-05-15T22:52:58.858Z,8.20
2019-05-15T22:55:29.054Z,8.30
2019-05-15T22:57:58.659Z,8.30
2019-05-15T23:00:28.931Z,8.30
2019-05-15T23:02:58.109Z,8.30
2019-05-15T23:05:29.242Z,8.30
2019-05-15T23:07:58.988Z,8.30
2019-05-15T23:10:29.249Z,8.30
2019-05-15T23:12:58.162Z,8.20
2019-05-15T23:15:28.193Z,8.20
2019-05-15T23:17:58.375Z,8.00
2019-05-15T23:20:28.523Z,7.90
2019-05-15T23:22:58.772Z,8.00
2019-05-15T23:25:29.009Z,8.20
2019-05-15T23:27:58.102Z,8.20
2019-05-15T23:30:28.766Z,8.10
2019-05-15T23:32:58.823Z,8.10
2019-05-15T23:35:35.422Z,8.00
2019-05-15T23:37:58.026Z,7.80
2019-05-15T23:40:28.802Z,7.80
2019-05-15T23:42:56.894Z,8.00
2019-05-15T23:45:25.510Z,8.00
2019-05-15T23:47:54.353Z,7.80
2019-05-15T23:50:22.765Z,7.70
2019-05-15T23:52:51.189Z,7.70
2019-05-15T23:55:19.668Z,7.70
2019-05-15T23:57:48.610Z,7.60
